Time;durP1;ratioP1;P1;durP2;ratioP2;P2;SDS_P1;SDS_P2;PMS_P1;PMS_P2;Temp;Humidity;BMP_temperature;BMP_pressure;BME280_temperature;BME280_humidity;BME280_pressure;Samples;Min_cycle;Max_cycle;Signal;HPM_P1;HPM_P2
2023/12/21 00:00:34;;;;;;;10.77;8.35;;;;;;;1.53;100.00;96691.09;5091549;28;20482;-69
2023/12/21 00:03:00;;;;;;;25.65;14.60;;;;;;;1.56;100.00;96683.22;5095753;28;20409;-68
2023/12/21 00:05:25;;;;;;;29.70;16.08;;;;;;;1.54;100.00;96684.16;5088545;28;20023;-68
2023/12/21 00:07:51;;;;;;;16.50;9.48;;;;;;;1.50;100.00;96682.59;5095046;28;20030;-68
2023/12/21 00:10:16;;;;;;;11.35;8.43;;;;;;;1.46;100.00;96684.47;5090633;28;20028;-68
2023/12/21 00:12:41;;;;;;;11.63;7.45;;;;;;;1.46;100.00;96683.63;5094669;28;20055;-69
2023/12/21 00:15:08;;;;;;;9.63;7.03;;;;;;;1.50;100.00;96685.19;5095206;28;20389;-69
2023/12/21 00:17:33;;;;;;;9.68;7.13;;;;;;;1.51;100.00;96679.94;5095428;28;20103;-68
2023/12/21 00:19:58;;;;;;;12.80;8.88;;;;;;;1.51;100.00;96681.69;5096116;28;20155;-69
2023/12/21 00:22:24;;;;;;;11.18;8.65;;;;;;;1.51;100.00;96672.13;5091228;28;20032;-69
2023/12/21 00:24:49;;;;;;;13.38;9.38;;;;;;;1.53;100.00;96670.31;5091599;28;20454;-68
2023/12/21 00:27:15;;;;;;;11.13;8.60;;;;;;;1.52;100.00;96678.19;5092494;28;20039;-69
2023/12/21 00:29:40;;;;;;;9.77;7.88;;;;;;;1.50;100.00;96677.41;5094356;28;20023;-69
2023/12/21 00:32:06;;;;;;;13.00;8.52;;;;;;;1.51;100.00;96677.34;5091158;28;20032;-68
2023/12/21 00:34:31;;;;;;;14.90;8.68;;;;;;;1.54;100.00;96673.78;5089603;28;20027;-68
2023/12/21 00:36:56;;;;;;;13.05;8.43;;;;;;;1.57;100.00;96668.47;5093995;28;20024;-68
2023/12/21 00:39:22;;;;;;;10.45;7.97;;;;;;;1.60;100.00;96662.31;5094107;28;20046;-69
2023/12/21 00:41:47;;;;;;;11.10;8.23;;;;;;;1.58;100.00;96672.75;5094037;28;20098;-68
2023/12/21 00:44:12;;;;;;;14.10;8.73;;;;;;;1.55;100.00;96663.34;5087790;28;20063;-68
2023/12/21 00:46:38;;;;;;;11.75;7.30;;;;;;;1.59;100.00;96663.22;5091418;28;20024;-68
2023/12/21 00:49:03;;;;;;;15.23;8.32;;;;;;;1.61;100.00;96657.03;5092389;28;20080;-69
2023/12/21 00:51:28;;;;;;;11.18;6.95;;;;;;;1.62;100.00;96658.72;5090845;28;20016;-69
2023/12/21 00:53:54;;;;;;;10.82;6.57;;;;;;;1.64;100.00;96663.88;5088347;28;20063;-69
2023/12/21 00:56:19;;;;;;;13.52;7.10;;;;;;;1.66;100.00;96668.09;5090344;28;20043;-69
2023/12/21 00:58:45;;;;;;;19.55;16.17;;;;;;;1.68;100.00;96658.50;5092434;28;20099;-69
2023/12/21 01:01:10;;;;;;;22.98;17.23;;;;;;;1.68;100.00;96658.50;5089271;28;20028;-69
2023/12/21 01:03:35;;;;;;;30.98;21.35;;;;;;;1.74;100.00;96664.34;5091642;28;20039;-69
2023/12/21 01:06:01;;;;;;;23.77;15.73;;;;;;;1.74;100.00;96669.53;5091149;28;20035;-69
2023/12/21 01:08:26;;;;;;;22.30;13.48;;;;;;;1.74;100.00;96672.13;5090361;28;20030;-69
2023/12/21 01:10:51;;;;;;;18.98;13.55;;;;;;;1.75;100.00;96679.00;5086904;28;20032;-69
2023/12/21 01:13:17;;;;;;;20.80;13.32;;;;;;;1.75;100.00;96668.63;5091598;28;20028;-69
2023/12/21 01:15:42;;;;;;;13.45;9.77;;;;;;;1.74;100.00;96669.53;5097485;28;20016;-69
2023/12/21 01:18:07;;;;;;;14.23;10.15;;;;;;;1.72;100.00;96674.78;5088076;28;20418;-70
2023/12/21 01:20:33;;;;;;;13.48;9.70;;;;;;;1.71;100.00;96684.34;5091691;28;20063;-69
2023/12/21 01:22:59;;;;;;;17.42;9.60;;;;;;;1.70;100.00;96682.66;5094037;28;20122;-69
2023/12/21 01:25:24;;;;;;;14.13;9.50;;;;;;;1.69;100.00;96690.47;5088638;28;20552;-70
2023/12/21 01:27:49;;;;;;;20.20;11.30;;;;;;;1.73;100.00;96686.84;5089890;28;20066;-69
2023/12/21 01:30:15;;;;;;;22.10;14.55;;;;;;;1.75;100.00;96699.78;5091682;28;20365;-69
2023/12/21 01:32:40;;;;;;;20.63;11.93;;;;;;;1.75;100.00;96698.00;5090832;28;20424;-70
2023/12/21 01:35:06;;;;;;;17.83;13.13;;;;;;;1.78;100.00;96704.84;5086965;28;20021;-69
2023/12/21 01:37:31;;;;;;;15.55;11.05;;;;;;;1.80;100.00;96698.69;5092370;28;20099;-69
2023/12/21 01:39:57;;;;;;;18.23;10.63;;;;;;;1.82;100.00;96696.00;5091563;28;20019;-69
2023/12/21 01:42:22;;;;;;;11.75;9.57;;;;;;;1.83;100.00;96688.16;5093299;28;20031;-69
2023/12/21 01:44:47;;;;;;;12.93;8.80;;;;;;;1.82;100.00;96675.25;5091755;28;20101;-69
2023/12/21 01:47:13;;;;;;;14.65;9.75;;;;;;;1.80;100.00;96679.66;5092164;28;20055;-69
2023/12/21 01:49:40;;;;;;;12.43;9.18;;;;;;;1.76;100.00;96673.72;5089670;28;20078;-69
2023/12/21 01:52:08;;;;;;;13.05;9.60;;;;;;;1.78;100.00;96678.88;5094257;28;20031;-69
2023/12/21 01:54:35;;;;;;;16.10;10.00;;;;;;;1.81;100.00;96671.81;5091091;28;20038;-69
2023/12/21 01:57:00;;;;;;;14.60;10.02;;;;;;;1.83;100.00;96676.94;5094498;28;20059;-69
2023/12/21 01:59:26;;;;;;;13.63;10.60;;;;;;;1.83;100.00;96672.59;5089026;28;20064;-69
2023/12/21 02:01:52;;;;;;;14.57;11.57;;;;;;;1.82;100.00;96676.09;5090815;28;20030;-69
2023/12/21 02:04:17;;;;;;;12.93;8.23;;;;;;;1.81;100.00;96676.16;5089441;28;20128;-69
2023/12/21 02:06:43;;;;;;;9.30;7.35;;;;;;;1.82;100.00;96675.25;5090615;28;20062;-69
2023/12/21 02:09:08;;;;;;;7.80;6.32;;;;;;;1.86;100.00;96666.41;5090098;28;20035;-69
2023/12/21 02:11:34;;;;;;;11.75;7.32;;;;;;;1.88;100.00;96664.63;5087558;28;20032;-69
2023/12/21 02:14:00;;;;;;;23.95;10.68;;;;;;;1.91;100.00;96674.88;5089598;28;20103;-69
2023/12/21 02:16:38;;;;;;;11.18;8.95;;;;;;;1.95;100.00;96672.97;5085442;28;20100;-69
2023/12/21 02:19:04;;;;;;;13.95;8.93;;;;;;;1.95;100.00;96675.56;5089266;28;20053;-69
2023/12/21 02:21:30;;;;;;;12.38;9.73;;;;;;;1.94;100.00;96666.94;5092802;28;20504;-70
2023/12/21 02:23:59;;;;;;;14.65;9.02;;;;;;;1.90;100.00;96665.41;5085748;28;20544;-69
2023/12/21 02:26:24;;;;;;;9.68;7.40;;;;;;;1.87;100.00;96662.91;5089687;28;20031;-69
2023/12/21 02:28:50;;;;;;;7.63;6.35;;;;;;;1.85;100.00;96656.94;5093034;28;20031;-69
2023/12/21 02:31:16;;;;;;;9.55;6.07;;;;;;;1.84;100.00;96650.06;5069430;28;20841;-69
2023/12/21 02:33:41;;;;;;;7.22;6.28;;;;;;;1.84;100.00;96650.91;5090122;28;20035;-69
2023/12/21 02:36:07;;;;;;;7.53;5.93;;;;;;;1.85;100.00;96642.22;5089561;28;20403;-69
2023/12/21 02:38:33;;;;;;;7.25;5.70;;;;;;;1.91;100.00;96654.09;5092041;28;20101;-70
2023/12/21 02:40:59;;;;;;;9.07;6.30;;;;;;;1.92;100.00;96649.72;5091464;28;20996;-69
2023/12/21 02:43:24;;;;;;;8.50;6.03;;;;;;;1.86;100.00;96645.63;5089880;28;20048;-69
2023/12/21 02:45:50;;;;;;;7.43;5.90;;;;;;;1.85;100.00;96655.19;5094417;28;20617;-69
2023/12/21 02:48:15;;;;;;;8.07;6.07;;;;;;;1.88;100.00;96649.03;5087172;28;20021;-69
2023/12/21 02:50:41;;;;;;;9.40;6.35;;;;;;;1.91;100.00;96653.25;5094303;28;20111;-69
2023/12/21 02:53:06;;;;;;;7.07;5.32;;;;;;;1.90;100.00;96648.94;5088954;28;20027;-70
2023/12/21 02:55:34;;;;;;;6.90;5.72;;;;;;;1.89;100.00;96636.88;5087707;28;20027;-70
2023/12/21 02:58:00;;;;;;;9.85;5.95;;;;;;;1.89;100.00;96640.34;5086686;28;20080;-69
2023/12/21 03:00:26;;;;;;;8.10;6.18;;;;;;;1.83;100.00;96640.56;5093207;28;20024;-69
2023/12/21 03:02:51;;;;;;;5.97;5.35;;;;;;;1.82;100.00;96650.13;5090072;28;20031;-69
2023/12/21 03:05:17;;;;;;;6.35;5.72;;;;;;;1.82;100.00;96647.53;5087310;28;20020;-70
2023/12/21 03:07:42;;;;;;;5.85;5.30;;;;;;;1.83;100.00;96636.25;5092945;28;20027;-69
2023/12/21 03:10:08;;;;;;;35.25;31.45;;;;;;;1.83;100.00;96645.75;5090777;28;20032;-69
2023/12/21 03:12:33;;;;;;;10.45;8.68;;;;;;;1.92;100.00;96649.72;5092029;28;20031;-69
2023/12/21 03:14:59;;;;;;;8.55;7.10;;;;;;;1.94;100.00;96656.56;5089499;28;20448;-69
2023/12/21 03:17:24;;;;;;;8.95;6.85;;;;;;;2.00;100.00;96651.09;5091822;28;20020;-69
2023/12/21 03:19:50;;;;;;;9.07;7.13;;;;;;;2.00;100.00;96647.66;5090184;28;20097;-69
2023/12/21 03:22:15;;;;;;;9.73;6.75;;;;;;;1.96;100.00;96646.94;5090012;28;20032;-69
2023/12/21 03:24:41;;;;;;;8.45;6.32;;;;;;;1.94;100.00;96642.72;5090171;28;20056;-69
2023/12/21 03:27:09;;;;;;;15.20;7.05;;;;;;;1.94;100.00;96648.75;5093352;28;20020;-69
2023/12/21 03:29:35;;;;;;;9.27;6.93;;;;;;;1.90;100.00;96642.03;5091935;28;20103;-69
2023/12/21 03:32:00;;;;;;;10.32;7.07;;;;;;;1.89;100.00;96629.94;5091245;28;20056;-69
2023/12/21 03:34:26;;;;;;;10.40;8.23;;;;;;;1.90;100.00;96630.78;5093631;28;20077;-69
2023/12/21 03:36:51;;;;;;;12.73;8.15;;;;;;;1.85;100.00;96621.44;5098122;28;21291;-69
2023/12/21 03:39:16;;;;;;;16.42;14.60;;;;;;;1.86;100.00;96624.84;5093860;28;20036;-69
2023/12/21 03:41:42;;;;;;;10.70;9.50;;;;;;;1.89;100.00;96626.50;5094065;28;20093;-70
2023/12/21 03:44:08;;;;;;;9.70;7.10;;;;;;;1.91;100.00;96624.66;5092431;28;20029;-69
2023/12/21 03:46:33;;;;;;;7.97;7.00;;;;;;;1.86;100.00;96630.03;5090500;28;20126;-69
2023/12/21 03:48:58;;;;;;;6.43;5.82;;;;;;;1.83;100.00;96614.59;5098580;28;20042;-69
2023/12/21 03:51:24;;;;;;;12.25;7.80;;;;;;;1.81;100.00;96603.44;5094195;28;20388;-70
2023/12/21 03:53:49;;;;;;;14.85;11.48;;;;;;;1.79;100.00;96592.28;5089558;28;20025;-69
2023/12/21 03:56:15;;;;;;;13.18;9.52;;;;;;;1.71;100.00;96590.88;5091665;28;20040;-69
2023/12/21 03:58:40;;;;;;;10.60;7.28;;;;;;;1.64;100.00;96583.41;5096005;28;20032;-69
2023/12/21 04:01:06;;;;;;;7.10;6.40;;;;;;;1.57;100.00;96567.22;5091722;28;20071;-69
2023/12/21 04:03:31;;;;;;;7.03;5.57;;;;;;;1.50;100.00;96558.03;5095102;28;20024;-70
2023/12/21 04:05:56;;;;;;;9.60;5.78;;;;;;;1.53;100.00;96550.09;5094805;28;20043;-69
2023/12/21 04:08:22;;;;;;;8.43;6.03;;;;;;;1.39;100.00;96537.72;5097715;28;20023;-69
2023/12/21 04:10:47;;;;;;;9.50;6.22;;;;;;;1.35;100.00;96542.19;5098053;28;20430;-69
2023/12/21 04:13:14;;;;;;;6.90;6.20;;;;;;;1.28;100.00;96556.31;5094721;28;20040;-69
2023/12/21 04:15:39;;;;;;;8.80;6.90;;;;;;;1.34;100.00;96556.06;5097092;28;20031;-69
2023/12/21 04:18:05;;;;;;;9.23;6.85;;;;;;;1.31;100.00;96560.53;5093152;28;20480;-69
2023/12/21 04:20:30;;;;;;;7.55;6.75;;;;;;;1.38;100.00;96561.97;5097386;28;20048;-69
2023/12/21 04:22:56;;;;;;;13.05;6.88;;;;;;;1.32;100.00;96563.06;5097950;28;20069;-69
2023/12/21 04:25:22;;;;;;;7.47;6.07;;;;;;;1.26;100.00;96552.94;5094140;28;20031;-69
2023/12/21 04:27:47;;;;;;;10.45;7.00;;;;;;;1.22;100.00;96548.81;5099747;28;20477;-69
2023/12/21 04:30:13;;;;;;;31.73;15.85;;;;;;;1.35;100.00;96547.38;5093353;28;20177;-69
2023/12/21 04:32:38;;;;;;;17.15;12.07;;;;;;;1.23;100.00;96538.34;5094707;28;20035;-69
2023/12/21 04:35:04;;;;;;;10.70;8.15;;;;;;;1.23;100.00;96533.16;5096451;28;20495;-69
2023/12/21 04:37:30;;;;;;;9.65;6.88;;;;;;;1.21;100.00;96532.38;5093560;28;20539;-69
2023/12/21 04:39:55;;;;;;;10.50;5.82;;;;;;;1.22;100.00;96528.88;5095842;28;20024;-69
2023/12/21 04:42:20;;;;;;;6.32;5.72;;;;;;;1.27;100.00;96534.72;5095605;28;20047;-70
2023/12/21 04:44:46;;;;;;;8.07;5.55;;;;;;;1.27;100.00;96541.66;5095400;28;20049;-69
2023/12/21 04:47:12;;;;;;;8.82;5.80;;;;;;;1.33;100.00;96541.41;5096943;28;20030;-69
2023/12/21 04:49:38;;;;;;;6.82;5.53;;;;;;;1.32;100.00;96534.53;5096936;28;20028;-69
2023/12/21 04:52:03;;;;;;;7.63;6.10;;;;;;;1.33;100.00;96540.56;5094398;28;20044;-69
2023/12/21 04:54:29;;;;;;;7.28;6.22;;;;;;;1.31;100.00;96544.97;5095694;28;20668;-69
2023/12/21 04:56:54;;;;;;;7.85;6.20;;;;;;;1.32;100.00;96551.84;5097221;28;20093;-69
2023/12/21 04:59:20;;;;;;;6.68;5.97;;;;;;;1.28;100.00;96541.59;5093977;28;20445;-69
2023/12/21 05:01:53;;;;;;;8.10;6.40;;;;;;;1.30;100.00;96549.31;5092640;28;20012;-69
2023/12/21 05:04:18;;;;;;;7.72;6.90;;;;;;;1.33;100.00;96541.41;5091225;28;20067;-69
2023/12/21 05:06:44;;;;;;;10.77;6.43;;;;;;;1.37;100.00;96542.97;5096415;28;20028;-69
2023/12/21 05:09:09;;;;;;;8.70;6.55;;;;;;;1.41;100.00;96541.91;5090766;28;20028;-69
2023/12/21 05:11:34;;;;;;;9.25;7.20;;;;;;;1.43;100.00;96547.88;5095446;28;20016;-69
2023/12/21 05:14:00;;;;;;;8.32;6.68;;;;;;;1.49;100.00;96558.94;5093852;28;20012;-69
2023/12/21 05:16:25;;;;;;;8.20;6.32;;;;;;;1.45;100.00;96552.19;5095254;28;20103;-69
2023/12/21 05:18:51;;;;;;;8.30;6.70;;;;;;;1.44;100.00;96540.94;5091677;28;20048;-69
2023/12/21 05:21:16;;;;;;;11.02;9.35;;;;;;;1.48;100.00;96547.69;5092949;28;20067;-69
2023/12/21 05:23:41;;;;;;;11.52;8.48;;;;;;;1.49;100.00;96564.13;5097214;28;20024;-69
2023/12/21 05:26:14;;;;;;;12.30;9.25;;;;;;;1.51;100.00;96563.13;5090115;28;20020;-69
2023/12/21 05:28:42;;;;;;;11.35;9.45;;;;;;;1.52;100.00;96553.63;5094344;28;20027;-69
2023/12/21 05:31:08;;;;;;;9.73;8.73;;;;;;;1.51;100.00;96559.72;5093501;28;20016;-69
2023/12/21 05:33:33;;;;;;;11.30;7.93;;;;;;;1.51;100.00;96559.72;5092852;28;20020;-69
2023/12/21 05:35:58;;;;;;;9.15;8.13;;;;;;;1.54;100.00;96562.16;5094300;28;20073;-69
2023/12/21 05:38:24;;;;;;;12.82;10.77;;;;;;;1.53;100.00;96547.50;5090671;28;20036;-69
2023/12/21 05:40:49;;;;;;;12.13;10.40;;;;;;;1.52;100.00;96546.66;5093172;28;20018;-69
2023/12/21 05:43:15;;;;;;;9.02;7.40;;;;;;;1.53;100.00;96540.56;5093991;28;20077;-69
2023/12/21 05:45:40;;;;;;;6.72;5.82;;;;;;;1.59;100.00;96544.66;5094225;28;20058;-69
2023/12/21 05:48:06;;;;;;;4.97;4.57;;;;;;;1.63;100.00;96540.19;5092984;28;20389;-69
2023/12/21 05:50:31;;;;;;;10.50;8.20;;;;;;;1.65;100.00;96533.16;5092865;28;20069;-69
2023/12/21 05:52:56;;;;;;;9.45;8.45;;;;;;;1.68;100.00;96539.06;5093965;28;20768;-69
2023/12/21 05:55:22;;;;;;;11.60;9.38;;;;;;;1.85;100.00;96538.34;5093828;28;20103;-69
2023/12/21 05:57:47;;;;;;;10.25;8.98;;;;;;;1.92;100.00;96527.66;5095222;28;20027;-69
2023/12/21 06:00:13;;;;;;;12.50;8.25;;;;;;;1.85;100.00;96521.88;5090722;28;20488;-69
2023/12/21 06:02:38;;;;;;;13.20;9.77;;;;;;;1.81;100.00;96523.81;5094731;28;20080;-69
2023/12/21 06:05:04;;;;;;;13.63;11.30;;;;;;;2.09;100.00;96504.38;5093150;28;20027;-69
2023/12/21 06:07:30;;;;;;;12.18;10.88;;;;;;;2.20;100.00;96501.28;5091381;28;20047;-69
2023/12/21 06:09:55;;;;;;;11.60;10.15;;;;;;;2.00;100.00;96504.81;5095748;28;20028;-69
2023/12/21 06:12:22;;;;;;;10.63;9.57;;;;;;;1.88;100.00;96506.19;5091788;28;20024;-69
2023/12/21 06:14:47;;;;;;;9.75;8.80;;;;;;;1.82;100.00;96499.53;5094756;28;20022;-69
2023/12/21 06:17:14;;;;;;;8.93;8.02;;;;;;;1.82;100.00;96501.25;5089661;28;20492;-69
2023/12/21 06:19:43;;;;;;;11.10;9.48;;;;;;;1.82;100.00;96511.66;5093197;28;20044;-68
2023/12/21 06:22:08;;;;;;;13.40;11.50;;;;;;;1.80;100.00;96508.28;5088125;28;20056;-70
2023/12/21 06:24:34;;;;;;;12.70;11.48;;;;;;;1.79;100.00;96514.38;5091538;28;20124;-68
2023/12/21 06:26:59;;;;;;;13.73;11.40;;;;;;;1.78;100.00;96517.88;5090857;28;20085;-67
2023/12/21 06:29:24;;;;;;;11.10;9.90;;;;;;;1.74;100.00;96511.97;5086816;28;20397;-68
2023/12/21 06:31:50;;;;;;;9.43;8.45;;;;;;;1.88;100.00;96508.81;5092965;28;20829;-67
2023/12/21 06:34:15;;;;;;;12.80;8.77;;;;;;;1.88;100.00;96508.81;5095404;28;20041;-68
2023/12/21 06:36:41;;;;;;;17.65;15.13;;;;;;;1.95;100.00;96504.16;5090498;28;20020;-68
2023/12/21 06:39:07;;;;;;;25.02;21.92;;;;;;;1.87;100.00;96501.88;5088163;28;20016;-68
2023/12/21 06:41:32;;;;;;;24.63;22.00;;;;;;;1.89;100.00;96504.44;5087968;28;20428;-68
2023/12/21 06:43:57;;;;;;;33.00;29.45;;;;;;;1.90;100.00;96517.38;5081914;28;20107;-68
2023/12/21 06:46:23;;;;;;;40.88;33.75;;;;;;;1.84;100.00;96508.09;5086715;28;20051;-67
2023/12/21 06:48:48;;;;;;;33.17;28.90;;;;;;;1.81;100.00;96507.38;5095787;28;20111;-67
2023/12/21 06:51:14;;;;;;;31.42;28.10;;;;;;;1.78;100.00;96499.72;5091633;28;20032;-67
2023/12/21 06:53:39;;;;;;;31.10;27.15;;;;;;;1.73;100.00;96499.91;5090568;28;20028;-66
2023/12/21 06:56:06;;;;;;;24.63;22.05;;;;;;;1.67;100.00;96508.84;5091805;28;20065;-66
2023/12/21 06:58:31;;;;;;;24.35;21.85;;;;;;;1.62;100.00;96502.97;5092668;28;20024;-66
2023/12/21 07:00:56;;;;;;;12.30;10.48;;;;;;;1.62;100.00;96492.59;5091955;28;20115;-67
2023/12/21 07:03:22;;;;;;;14.45;12.15;;;;;;;1.64;100.00;96495.13;5087110;28;20034;-67
2023/12/21 07:05:50;;;;;;;17.70;14.50;;;;;;;1.67;100.00;96495.84;5094056;28;20012;-66
2023/12/21 07:08:16;;;;;;;16.52;14.82;;;;;;;1.65;100.00;96504.59;5091820;28;20404;-67
2023/12/21 07:10:43;;;;;;;18.77;16.98;;;;;;;1.65;100.00;96502.84;5094658;28;20038;-67
2023/12/21 07:13:09;;;;;;;16.50;14.57;;;;;;;1.64;100.00;96498.56;5093730;28;20087;-67
2023/12/21 07:15:34;;;;;;;18.98;15.55;;;;;;;1.65;100.00;96523.59;5090497;28;20116;-68
2023/12/21 07:17:59;;;;;;;15.27;12.52;;;;;;;1.67;100.00;96532.19;5086225;28;20109;-68
2023/12/21 07:20:26;;;;;;;12.32;11.00;;;;;;;1.71;100.00;96536.34;5086795;28;20417;-70
2023/12/21 07:22:51;;;;;;;12.90;11.63;;;;;;;1.73;100.00;96546.63;5088038;28;20024;-68
2023/12/21 07:25:17;;;;;;;14.25;12.80;;;;;;;1.77;100.00;96547.38;5088729;28;20031;-68
2023/12/21 07:27:43;;;;;;;12.48;11.18;;;;;;;1.81;100.00;96548.91;5085835;28;20054;-69
2023/12/21 07:30:09;;;;;;;13.13;11.07;;;;;;;1.85;100.00;96547.84;5088238;28;20027;-68
2023/12/21 07:32:34;;;;;;;12.52;11.00;;;;;;;1.83;100.00;96545.34;5086746;28;20040;-68
2023/12/21 07:35:00;;;;;;;13.80;11.70;;;;;;;1.85;100.00;96537.47;5086037;28;20012;-68
2023/12/21 07:37:26;;;;;;;12.38;11.02;;;;;;;1.90;100.00;96532.94;5090887;28;20051;-68
2023/12/21 07:39:51;;;;;;;13.15;11.77;;;;;;;1.94;100.00;96526.69;5093096;28;20058;-64
2023/12/21 07:42:17;;;;;;;14.13;12.20;;;;;;;1.98;100.00;96524.78;5090302;28;20028;-68
2023/12/21 07:44:43;;;;;;;14.68;10.40;;;;;;;2.03;100.00;96514.19;5090324;28;20027;-68
2023/12/21 07:47:09;;;;;;;11.32;9.50;;;;;;;2.08;100.00;96518.28;5089257;28;20028;-69
2023/12/21 07:49:35;;;;;;;11.10;9.93;;;;;;;2.17;100.00;96505.78;5090484;28;20031;-68
2023/12/21 07:52:00;;;;;;;11.60;9.10;;;;;;;2.19;100.00;96499.59;5090032;28;20053;-68
2023/12/21 07:54:25;;;;;;;15.85;12.93;;;;;;;2.25;100.00;96494.13;5087485;28;20512;-68
2023/12/21 07:56:51;;;;;;;14.93;13.43;;;;;;;2.31;100.00;96493.00;5089415;28;20073;-68
2023/12/21 07:59:17;;;;;;;25.38;18.08;;;;;;;2.34;100.00;96499.81;5089002;28;20035;-68
2023/12/21 08:01:43;;;;;;;41.63;23.17;;;;;;;2.33;100.00;96504.16;5090601;28;20031;-68
2023/12/21 08:04:11;;;;;;;40.13;24.15;;;;;;;2.33;100.00;96498.97;5087499;28;20028;-67
2023/12/21 08:06:36;;;;;;;41.15;23.50;;;;;;;2.39;100.00;96492.66;5090781;28;20020;-67
2023/12/21 08:09:02;;;;;;;35.05;22.52;;;;;;;2.45;100.00;96492.34;5086203;28;20083;-68
2023/12/21 08:11:27;;;;;;;32.70;18.88;;;;;;;2.49;100.00;96501.69;5091863;28;20749;-67
2023/12/21 08:13:53;;;;;;;33.33;21.35;;;;;;;2.47;100.00;96495.72;5091258;28;20095;-67
2023/12/21 08:16:18;;;;;;;23.40;16.05;;;;;;;2.49;100.00;96493.06;5088403;28;20024;-68
2023/12/21 08:18:44;;;;;;;17.40;11.25;;;;;;;2.52;100.00;96500.72;5091516;28;20048;-68
2023/12/21 08:21:10;;;;;;;14.38;10.68;;;;;;;2.55;100.00;96497.97;5094255;28;20107;-68
2023/12/21 08:23:36;;;;;;;16.10;12.25;;;;;;;2.60;100.00;96495.97;5093904;28;20070;-67
2023/12/21 08:26:03;;;;;;;24.42;14.32;;;;;;;2.64;100.00;96494.09;5089624;28;20052;-67
2023/12/21 08:28:30;;;;;;;21.58;17.10;;;;;;;2.66;100.00;96481.84;5092286;28;20024;-68
2023/12/21 08:30:56;;;;;;;24.42;16.38;;;;;;;2.68;100.00;96482.63;5086827;28;20143;-68
2023/12/21 08:33:21;;;;;;;22.35;16.25;;;;;;;2.70;100.00;96484.25;5090797;28;20051;-68
2023/12/21 08:35:47;;;;;;;19.80;15.32;;;;;;;2.74;100.00;96477.09;5090917;28;20026;-68
2023/12/21 08:38:12;;;;;;;17.95;13.23;;;;;;;2.79;100.00;96476.91;5092573;28;20188;-68
2023/12/21 08:40:37;;;;;;;23.15;14.77;;;;;;;2.79;100.00;96467.34;5093897;28;20024;-68
2023/12/21 08:43:03;;;;;;;12.90;10.90;;;;;;;2.83;100.00;96466.28;5094055;28;20023;-68
2023/12/21 08:45:28;;;;;;;10.57;9.40;;;;;;;2.93;100.00;96465.81;5095240;28;20032;-67
2023/12/21 08:47:54;;;;;;;13.80;11.68;;;;;;;3.04;100.00;96457.47;5092347;28;20831;-68
2023/12/21 08:50:20;;;;;;;15.50;12.80;;;;;;;3.12;100.00;96460.56;5093377;28;20495;-67
2023/12/21 08:52:45;;;;;;;12.80;10.73;;;;;;;3.19;100.00;96459.31;5090917;28;20086;-67
2023/12/21 08:55:11;;;;;;;12.90;11.63;;;;;;;3.23;100.00;96452.22;5091924;28;20008;-68
2023/12/21 08:57:37;;;;;;;9.68;8.80;;;;;;;3.24;100.00;96457.31;5090422;28;20024;-68
2023/12/21 09:00:07;;;;;;;11.70;10.00;;;;;;;3.28;100.00;96461.44;5087610;28;20024;-67
2023/12/21 09:02:37;;;;;;;14.73;13.18;;;;;;;3.30;100.00;96458.78;5089274;28;20666;-68
2023/12/21 09:05:02;;;;;;;16.15;14.23;;;;;;;3.34;100.00;96442.06;5088268;28;20713;-68
2023/12/21 09:07:28;;;;;;;18.80;16.85;;;;;;;3.41;100.00;96451.25;5090289;28;20126;-68
2023/12/21 09:09:53;;;;;;;14.90;13.38;;;;;;;3.46;100.00;96448.41;5089418;28;20048;-68
2023/12/21 09:12:19;;;;;;;12.50;10.95;;;;;;;3.57;100.00;96451.31;5093130;28;20024;-69
2023/12/21 09:14:45;;;;;;;15.00;11.32;;;;;;;3.71;100.00;96452.34;5092612;28;20107;-67
2023/12/21 09:17:10;;;;;;;14.27;12.77;;;;;;;3.83;100.00;96445.63;5086869;28;20032;-67
2023/12/21 09:19:36;;;;;;;16.02;12.63;;;;;;;3.95;100.00;96439.78;5091028;28;20048;-67
2023/12/21 09:22:01;;;;;;;16.63;14.93;;;;;;;4.05;100.00;96434.91;5092962;28;20053;-67
2023/12/21 09:24:26;;;;;;;11.45;10.15;;;;;;;4.13;100.00;96426.69;5090507;28;20047;-67
2023/12/21 09:26:52;;;;;;;16.25;9.82;;;;;;;4.21;100.00;96434.09;5092789;28;20107;-67
2023/12/21 09:29:17;;;;;;;14.10;11.65;;;;;;;4.30;100.00;96431.78;5088754;28;20039;-68
2023/12/21 09:31:43;;;;;;;7.35;6.20;;;;;;;4.35;100.00;96425.50;5091197;28;20020;-68
2023/12/21 09:34:08;;;;;;;5.97;5.47;;;;;;;4.45;100.00;96413.59;5092256;28;20012;-68
2023/12/21 09:36:33;;;;;;;7.80;7.10;;;;;;;4.61;100.00;96410.97;5089873;28;20052;-67
2023/12/21 09:38:59;;;;;;;24.27;17.17;;;;;;;4.75;100.00;96404.97;5087292;28;20082;-67
2023/12/21 09:41:24;;;;;;;14.43;13.00;;;;;;;4.81;100.00;96404.63;5089951;28;20043;-68
2023/12/21 09:43:52;;;;;;;14.48;12.95;;;;;;;4.78;100.00;96406.56;5093541;28;20028;-67
2023/12/21 09:46:20;;;;;;;15.65;12.48;;;;;;;4.73;100.00;96412.03;5089229;28;20149;-67
2023/12/21 09:48:46;;;;;;;13.55;9.68;;;;;;;4.61;100.00;96425.78;5086590;28;20069;-67
2023/12/21 09:51:15;;;;;;;8.18;7.38;;;;;;;4.49;100.00;96422.94;5087627;28;20081;-67
2023/12/21 09:53:41;;;;;;;12.40;9.75;;;;;;;4.38;100.00;96422.72;5093601;28;20035;-67
2023/12/21 09:56:07;;;;;;;10.65;9.57;;;;;;;4.28;100.00;96425.00;5093732;28;20546;-67
2023/12/21 09:58:35;;;;;;;8.02;7.20;;;;;;;4.53;100.00;96428.81;5091210;28;20038;-67
2023/12/21 10:01:00;;;;;;;8.00;6.10;;;;;;;4.54;100.00;96441.78;5084444;28;20146;-67
2023/12/21 10:03:26;;;;;;;8.73;7.60;;;;;;;4.51;100.00;96425.47;5090556;28;20062;-67
2023/12/21 10:05:51;;;;;;;14.43;9.60;;;;;;;4.41;100.00;96435.56;5084680;28;20111;-67
2023/12/21 10:08:18;;;;;;;9.25;7.38;;;;;;;4.30;100.00;96436.16;5090737;28;20165;-67
2023/12/21 10:10:44;;;;;;;14.38;9.10;;;;;;;4.30;100.00;96439.59;5088641;28;20020;-67
2023/12/21 10:13:09;;;;;;;12.23;10.10;;;;;;;4.41;100.00;96456.44;5091858;28;20024;-67
2023/12/21 10:15:35;;;;;;;12.68;10.23;;;;;;;4.51;100.00;96462.81;5091966;28;20032;-68
2023/12/21 10:18:00;;;;;;;16.60;14.90;;;;;;;4.41;100.00;96475.50;5089980;28;20030;-67
2023/12/21 10:20:26;;;;;;;20.35;18.38;;;;;;;4.44;100.00;96475.38;5087587;28;20082;-67
2023/12/21 10:22:52;;;;;;;19.50;16.13;;;;;;;4.32;100.00;96467.38;5094095;28;20114;-67
2023/12/21 10:25:21;;;;;;;16.17;10.52;;;;;;;4.23;100.00;96471.31;5085593;28;20060;-67
2023/12/21 10:27:54;;;;;;;10.95;9.27;;;;;;;4.23;100.00;96479.16;5087736;28;20028;-67
2023/12/21 10:30:23;;;;;;;12.85;7.70;;;;;;;4.23;100.00;96477.38;5088589;28;20571;-67
2023/12/21 10:32:53;;;;;;;16.88;14.27;;;;;;;4.26;100.00;96469.38;5085788;28;20031;-67
2023/12/21 10:35:19;;;;;;;13.48;12.20;;;;;;;4.28;100.00;96466.69;5081990;28;20509;-66
2023/12/21 10:37:48;;;;;;;10.65;9.63;;;;;;;4.29;100.00;96464.00;5088263;28;20071;-67
2023/12/21 10:40:14;;;;;;;23.40;10.68;;;;;;;4.30;100.00;96464.84;5086291;28;20028;-67
2023/12/21 10:42:46;;;;;;;22.30;14.15;;;;;;;4.32;100.00;96483.03;5080965;28;20063;-67
2023/12/21 10:45:13;;;;;;;19.38;13.73;;;;;;;4.32;100.00;96493.44;5086458;28;20043;-68
2023/12/21 10:47:46;;;;;;;9.70;8.70;;;;;;;4.27;100.00;96486.69;5081184;28;20067;-67
2023/12/21 10:50:13;;;;;;;9.48;6.47;;;;;;;4.22;100.00;96483.50;5088454;28;20048;-67
2023/12/21 10:52:40;;;;;;;13.98;8.65;;;;;;;4.16;100.00;96489.06;5087657;28;20021;-68
2023/12/21 10:55:07;;;;;;;20.38;15.10;;;;;;;4.15;100.00;96492.59;5087864;28;20036;-68
2023/12/21 10:57:33;;;;;;;23.70;16.50;;;;;;;4.11;100.00;96488.47;5088820;28;20126;-68
2023/12/21 10:59:59;;;;;;;19.67;15.20;;;;;;;4.10;100.00;96490.22;5094834;28;20020;-66
2023/12/21 11:02:25;;;;;;;18.58;16.67;;;;;;;4.15;100.00;96485.59;5088385;28;20104;-68
2023/12/21 11:04:52;;;;;;;22.02;14.45;;;;;;;4.18;100.00;96487.22;5093328;28;20066;-65
2023/12/21 11:07:19;;;;;;;15.75;13.18;;;;;;;4.18;100.00;96471.56;5084715;28;20035;-66
2023/12/21 11:09:45;;;;;;;12.20;10.68;;;;;;;4.20;100.00;96464.50;5088853;28;20039;-65
2023/12/21 11:12:11;;;;;;;16.02;10.57;;;;;;;4.16;100.00;96457.78;5087297;28;20105;-66
2023/12/21 11:14:36;;;;;;;13.18;10.25;;;;;;;4.19;100.00;96451.53;5089108;28;20055;-65
2023/12/21 11:17:03;;;;;;;17.08;15.38;;;;;;;4.30;100.00;96441.38;5088781;28;20024;-65